Ana Sayfa
METAR-TAF:

METAR-TAF

Havaalanları :

Bangkok, Tayland

Enlem: 13-54-45N, Boylam: 100-36-24E, yükseklik: 4 m

Güncel hava durumu gözlemi

Rapor saat 00:30 UTC de 48 dakika önce yapıldı.
Rüzgar güneydan 4 kt, güneydoğu ve güney/güneybatı arasında değişken
Sıcaklık 31°C
Nem 79%
Basınç 1008 hPa
Görüş mesafesi: 9000 m
2000 ft yükseklikte az bulutlu

METAR: VTBD 190030Z 17004KT 130V200 9000 FEW020 31/27 Q1008 NOSIG

Saat: 08:18 (01:18 UTC)

Tahmin

Rapor saat 23:00 UTC de 2 saat ve 18 dakika önce yapıldı.
Ayın 19'si saat 00 UTC'den ayın 20'si saat 06 UTC'ye kadar geçerli Tahmin
Rüzgar güneydan 8 kt
Görüş mesafesi 10 km veya daha fazla
2500 ft yükseklikte az bulutlu

TAF: VTBD 182300Z 1900/2006 19008KT 9999 FEW025

4.000'den fazla havaalanı için hava durumu gözlemleri ve tahminleri (METAR ve TAF raporları).

Kullanılabilir istasyonlar harita üzerinde sarı ve kırmızı noktalarla gösterilir.

İstasyonun adını görmek için fareyi noktanın üzerinde gezdirin.

Sonrasında hava gözlem ve tahminlerini görmek için tıklayın.

Haritayı değiştirmek için: yaklaştırmak için siyah artı işaretli yeşil düğmeye ve uzaklaştırmak için de eksi işaretli düğmeye hızla tıklayın; bitişik haritalar için yeşil okları kullanın.


METAR-TAF: